»·PEaware :: SKY285 KPRC-KHII

SKY285 :: KPRC-KHII

FLIGHT INFORMATION

Flight Status: Arrived
Operator:
Sky High Charters
More flights by this operator :: More flights under this callsign
Pilot: Rick E. (42686)
Aircraft: SOCATA TBM-900
(TBM9)
More flights by this aircraft type
Origin: KPRC Love
United States
Destination: KHII Lake Havasu City
United States
More flights between these airports :: More routes between these airports
Route: WNSKI2 MUMTE V12 EED
File this flight plan on PilotEdge
Remarks:
Altitude:
(Current/Filed)
14,000ft
Speed:
(Current/Filed)
292kts
Departed: 11-May-23 12:01 PM
Arrived: 11-May-23 12:43 PM
Distance/Time
Traveled:
96nm/0:42
Distance/Time
To Go:
Arrived

Flight Plot

Page will automatically refresh every two minutes.

Flight plan parsing failed; only flown route is shown


Map Options




Map Legend


Flown Route
Filed Route
Departure Airport
Arrival Airport
Navaid (VOR, NDB)
Fix

Horizontal Profiles

Position Reports

Time Latitude Longitude Heading Altitude Ground
Speed
11-May-23 11:49 34.646539 -112.424758 218 5026ft 0kts
11-May-23 11:50 34.646539 -112.424758 218 5026ft 0kts
11-May-23 11:51 34.646539 -112.424758 218 5026ft 0kts
11-May-23 11:52 34.646539 -112.424758 218 5026ft 0kts
11-May-23 11:53 34.646539 -112.424758 218 5026ft 0kts
11-May-23 11:54 34.646539 -112.424758 218 5026ft 0kts
11-May-23 11:54 34.646539 -112.424758 218 5026ft 0kts
11-May-23 11:56 34.647601 -112.423011 135 5028ft 13kts
11-May-23 11:57 34.644284 -112.419216 134 5045ft 21kts
11-May-23 11:58 34.643642 -112.418344 36 5048ft 0kts
11-May-23 11:59 34.643642 -112.418344 36 5048ft 0kts
11-May-23 11:59 34.643643 -112.418343 36 5048ft 0kts
11-May-23 12:00 34.655952 -112.430947 341 5684ft 116kts
11-May-23 12:01 34.683571 -112.408390 84 7592ft 171kts
11-May-23 12:03 34.641343 -112.364957 160 10001ft 206kts
11-May-23 12:04 34.587604 -112.328254 122 11246ft 241kts
11-May-23 12:04 34.545060 -112.287648 174 12330ft 249kts
11-May-23 12:05 34.488076 -112.325648 243 13713ft 249kts
11-May-23 12:06 34.460542 -112.407330 258 13938ft 273kts
11-May-23 12:07 34.453654 -112.498761 276 13930ft 271kts
11-May-23 12:08 34.469340 -112.587562 293 13913ft 270kts
11-May-23 12:09 34.505453 -112.665910 309 13897ft 265kts
11-May-23 12:10 34.558286 -112.727532 325 13885ft 262kts
11-May-23 12:11 34.623183 -112.767753 341 13832ft 264kts
11-May-23 12:12 34.690842 -112.797772 321 13832ft 262kts
11-May-23 12:13 34.718045 -112.877839 274 13803ft 270kts
11-May-23 12:14 34.721357 -112.969091 275 13814ft 268kts
11-May-23 12:15 34.724602 -113.059438 275 13815ft 267kts
11-May-23 12:16 34.727736 -113.149771 275 13815ft 268kts
11-May-23 12:17 34.730807 -113.240042 276 13811ft 267kts
11-May-23 12:18 34.733836 -113.330562 275 13808ft 268kts
11-May-23 12:19 34.736754 -113.420525 275 13949ft 262kts
11-May-23 12:20 34.739619 -113.510070 275 13945ft 266kts
11-May-23 12:21 34.742425 -113.600012 275 13945ft 266kts
11-May-23 12:22 34.745152 -113.689908 275 13940ft 266kts
11-May-23 12:23 34.747818 -113.779806 275 13942ft 265kts
11-May-23 12:24 34.750529 -113.869804 275 13939ft 265kts
11-May-23 12:25 34.752950 -113.959344 275 13939ft 265kts
11-May-23 12:26 34.755401 -114.049335 275 13938ft 266kts
11-May-23 12:27 34.757853 -114.139532 275 13933ft 267kts
11-May-23 12:28 34.760198 -114.229850 274 13936ft 267kts
11-May-23 12:29 34.762473 -114.320002 274 13852ft 271kts
11-May-23 12:30 34.764844 -114.414802 274 12571ft 274kts
11-May-23 12:31 34.768200 -114.491699 287 10607ft 198kts
11-May-23 12:32 34.802257 -114.539724 337 8647ft 190kts
11-May-23 12:33 34.849608 -114.549861 17 7906ft 159kts
11-May-23 12:34 34.857341 -114.501095 112 8003ft 186kts
11-May-23 12:35 34.808923 -114.484629 168 8002ft 194kts
11-May-23 12:36 34.756488 -114.470624 162 7531ft 178kts
11-May-23 12:37 34.713445 -114.453382 163 6015ft 148kts
11-May-23 12:38 34.675213 -114.438349 164 4422ft 141kts
11-May-23 12:39 34.642616 -114.414499 149 3073ft 125kts
11-May-23 12:40 34.610481 -114.388682 145 2209ft 137kts
11-May-23 12:41 34.586546 -114.368869 153 1016ft 99kts
11-May-23 12:42 34.574343 -114.361281 240 760ft 14kts
11-May-23 12:43 34.574025 -114.362611 61 754ft 0kts
11-May-23 12:44 34.574025 -114.362611 61 754ft 0kts
11-May-23 12:45 34.574025 -114.362611 61 754ft 0kts
11-May-23 12:46 34.574025 -114.362611 61 754ft 0kts
11-May-23 12:47 34.574025 -114.362611 61 754ft 0kts
11-May-23 12:48 34.574025 -114.362611 61 754ft 0kts
11-May-23 12:49 34.574025 -114.362611 61 754ft 0kts
11-May-23 12:50 34.574025 -114.362611 61 754ft 0kts
11-May-23 12:51 34.574025 -114.362611 61 754ft 0kts
11-May-23 12:52 34.574025 -114.362611 61 754ft 0kts
11-May-23 12:53 34.574025 -114.362611 61 754ft 0kts
11-May-23 12:54 34.574025 -114.362611 61 754ft 0kts
11-May-23 12:55 34.574025 -114.362611 61 754ft 0kts
11-May-23 12:56 34.574025 -114.362611 61 754ft 0kts

Navigation Log

Ident Type
Flight plan parsing failed, navigation log unavailable